TOP > 外国特許検索

外国特許検索

Display results per page Option
Patent state
Country

Clear

Hits 4748 results

No. Application number
Gazette No
Country
Title
Release Date
Update Date
Information Provider
4601 2015JP059671 WO 2015152062 世界知的所有権機関(WIPO) REFORMED MAGNETIC FLUID, AND GRIPPING MECHANISM AND GRIPPING DEVICE WHICH USE REFORMED MAGNETIC FLUID 新技術説明会 2015/12/16 2015/12/16 九州工業大学
4602 2016JP073445 WO 2017026483 世界知的所有権機関(WIPO) SEMICONDUCTOR INSPECTION DEVICE 新技術説明会 実績あり 2017/10/31 2019/04/22 九州工業大学
4603 2018JP008943 WO 2018180330 世界知的所有権機関(WIPO) EMOTION ESTIMATING APPARATUS 新技術説明会 2018/10/30 2019/01/30 九州工業大学
4604 2019JP000798 WO 2019139153 世界知的所有権機関(WIPO) PEROVSKITE COMPOUND AND LIGHT CONVERSION ELEMENT IN WHICH SAME IS USED 新技術説明会 2019/10/24 2019/10/24 九州工業大学
4605 2019JP043715 WO 2020110651 世界知的所有権機関(WIPO) SPHERICAL BODY DRIVE TYPE MOVEMENT DEVICE 新技術説明会 2020/07/29 2020/07/29 九州工業大学
4606 2020JP027085 WO 2021006343 世界知的所有権機関(WIPO) COMMUNICATION SYSTEM, REMOTE CONTROL MACHINE SYSTEM, AND COMMUNICATION METHOD 2021/05/06 2021/05/06 九州工業大学
4607 2007JP059028 WO 2007/125982 世界知的所有権機関(WIPO) NOVEL CULTURED SILKWORM CELL ENABLING HIGHLY EFFICIENT BACULOVIRUS PRODUCTION AND PROTEIN PRODUCTION 2008/08/22 2008/08/21 九州大学
4608 2007JP053297 WO 2007/105450 世界知的所有権機関(WIPO) HEAT REMOVING METHOD AND HEAT REMOVING APPARATUS 2008/08/22 2008/08/21 九州大学
4609 2006JP324960 WO 2007/069692 世界知的所有権機関(WIPO) MONITORING OF INTRACELLULAR MITOCHONDRIAL LOCALIZATION 新技術説明会 2008/08/22 2008/08/21 九州大学
4610 2006JP320703 WO 2007/049487 世界知的所有権機関(WIPO) SUBSTRATE FOR ANALYSIS FOR USE IN RAMAN SPECTROSCOPIC ANALYSIS AND SUBSTRATE ASSEMBLY FOR ANALYSIS 2008/08/22 2008/08/21 九州大学
4611 2006JP312070 WO 2006/135026 世界知的所有権機関(WIPO) ADSORPTION REFRIGERATOR 2008/08/22 2008/08/21 九州大学
4612 2006JP307745 WO 2006/112327 世界知的所有権機関(WIPO) LK3 GENE REGULATING RICE GRAIN LENGTH AND THE USE THEREOF 2008/08/22 2008/08/21 九州大学
4613 2005JP009364 WO 2005/119210 世界知的所有権機関(WIPO) TEST CHIP HAVING LIGHT AMPLIFICATION ELEMENT MOUNTED THEREON 2008/08/22 2008/08/21 九州大学
4614 2007JP055855 WO 2008/035468 世界知的所有権機関(WIPO) THIN NANODIAMOND FILM HAVING n-TYPE CONDUCTIVITY AND PROCESS FOR PRODUCING THE SAME 2008/11/27 2013/07/10 九州大学
4615 2008JP002286 WO 2009/028163 世界知的所有権機関(WIPO) FILTER AND METHOD OF FILTRATION 新技術説明会 2010/01/15 2010/05/24 九州大学
4616 2008JP051899 WO 2008/093881 世界知的所有権機関(WIPO) METHOD FOR SYNTHESIS OF NITROXYL RADICAL 2011/03/14 2011/03/22 九州大学
4617 2008JP056826 WO 2008/123614 世界知的所有権機関(WIPO) METHOD FOR PRODUCTION OF THREE-DIMENSIONAL STRUCTURE OF CELLS 2011/03/14 2011/03/22 九州大学
4618 2008JP003187 WO 2009/063599 世界知的所有権機関(WIPO) FLUID MACHINE UTILIZING UNSTEADY FLOW, WIND TURBINE, AND METHOD FOR INCREASING VELOCITY OF INTERNAL FLOW OF FLUID MACHINE 2011/04/07 2011/04/21 九州大学
4619 2010JP001809 WO 2010/109800 世界知的所有権機関(WIPO) FLUID MACHINE UTILIZING UNSTEADY FLOW, WINDMILL, AND METHOD FOR INCREASING VELOCITY OF INTERNAL FLOW OF FLUID MACHINE 2011/05/06 2011/05/24 九州大学
4620 2010JP064848 WO 2011/025045 世界知的所有権機関(WIPO) GRAPHENE FILM AND METHOD FOR PRODUCING SAME 新技術説明会 2011/06/22 2011/08/02 九州大学
4621 2010JP061693 WO 2011/004891 世界知的所有権機関(WIPO) MAGNETIZATION-REVERSING APPARATUS, MEMORY ELEMENT, AND MAGNETIC FIELD-GENERATING APPARATUS 新技術説明会 2011/09/06 2011/09/29 九州大学
4622 2005JP020122 WO 2006/051726 世界知的所有権機関(WIPO) SENSOR PART AND BIOLOGICAL SENSOR 新技術説明会 2011/11/28 2011/12/02 九州大学
4623 2006SG000157 WO 2006/121414 世界知的所有権機関(WIPO) APPARATUS AND METHOD FOR DESALINATION 2011/11/28 2011/11/28 九州大学
4624 2006JP304154 WO 2006/126320 世界知的所有権機関(WIPO) COMMUNICATION CIRCUIT, COMMUNICATION APPARATUS, IMPEDANCE MATCHING CIRCUIT AND IMPEDANCE MATCHING CIRCUIT DESIGNING METHOD 2011/11/28 2011/12/02 九州大学
4625 2006JP304155 WO 2006/126321 世界知的所有権機関(WIPO) FILTER CHARACTERISTICS REGULATING METHOD, FILTER CHARACTERISTICS REGULATOR, FILTER, AND COMMUNICATION APPARATUS 2011/11/28 2011/12/02 九州大学
4626 2006JP320717 WO 2007/046403 世界知的所有権機関(WIPO) PLANT BELONGING TO GENUS ORYZA HAVING DOMINANT DWARF TRAIT, AND USE THEREOF 2011/11/28 2011/12/02 九州大学
4627 2009JP051348 WO 2009/096423 世界知的所有権機関(WIPO) NETWORK SYSTEM, NODE, PACKET FORWARDING METHOD, PROGRAM, AND RECORDING MEDIUM 2011/11/28 2011/12/02 九州大学
4628 2010JP071658 WO 2011/068191 世界知的所有権機関(WIPO) MANUFACTURING METHOD AND DEVICE FOR COMPOSITION IN WHICH DISPERSED PHASE IS FINELY DISPERSED INTO CONTINUOUS PHASE 新技術説明会 2011/11/28 2011/12/02 九州大学
4629 2010JP062225 WO 2011/010656 世界知的所有権機関(WIPO) ORGANIC ELECTROLUMINESCENT ELEMENT 2011/11/28 2011/12/02 九州大学
4630 2011JP050881 WO 2011/090079 世界知的所有権機関(WIPO) BISTABLE ELEMENT 2011/11/28 2011/12/02 九州大学
4631 2010JP061566 WO 2011/004852 世界知的所有権機関(WIPO) COMPOSITE SHAPED BODY, SILICA GLASS, AND PROCESSES FOR PRODUCTION OF SAME 2011/11/28 2011/12/02 九州大学
4632 2011JP053821 WO 2011/105360 世界知的所有権機関(WIPO) IDENTIFICATION DEVICE AND IDENTIFICATION METHOD 2011/11/28 2011/12/02 九州大学
4633 2011JP053845 WO 2011/105371 世界知的所有権機関(WIPO) COMMUNICATIONS SYSTEM, SLAVE NODE, ROUTE BUILDING METHOD, AND PROGRAM 2011/11/28 2011/12/02 九州大学
4634 2010JP004021 WO 2011/004552 世界知的所有権機関(WIPO) WATER-SOLUBLE DRUG CARRIER AND PROCESS FOR PRODUCTION THEREOF 2011/11/28 2011/12/02 九州大学
4635 2010JP069385 WO 2011/052759 世界知的所有権機関(WIPO) NOVEL NITROXYL RADICAL COMPOUND AND PROCESS FOR PRODUCTION THEREOF 2011/11/28 2011/12/02 九州大学
4636 2010JP069386 WO 2011/052760 世界知的所有権機関(WIPO) METHOD FOR DETECTING ENDOGENOUS BIOMOLECULE 2011/11/28 2011/12/02 九州大学
4637 2011JP051940 WO 2011/093497 世界知的所有権機関(WIPO) PLASMA OXIDATION-REDUCTION METHOD, METHOD FOR PROMOTING PLANT/ANIMAL GROWTH USING THE SAME, AND PLASMA GENERATING DEVICE FOR USE IN METHOD FOR PROMOTING PLANT/ANIMAL GROWTH 2011/11/28 2011/12/02 九州大学
4638 2010JP050030 WO 2010/079781 世界知的所有権機関(WIPO) FIBROUS NICKEL AND METHOD FOR PRODUCING THE SAME 2012/02/07 2012/03/01 九州大学
4639 2010JP062905 WO 2011/013802 世界知的所有権機関(WIPO) NONDESTRUCTIVE TESTING METHOD AND DEVICE 2012/03/01 2012/04/04 九州大学
4640 2011JP054602 WO 2011/108530 世界知的所有権機関(WIPO) PARTICLE COATED WITH CARBON NANOTUBES, AND METHOD FOR PRODUCING SAME 2012/03/06 2012/04/04 九州大学
4641 2011JP056844 WO 2011/118587 世界知的所有権機関(WIPO) TEMPERATURE-, PH- OR SALT CONCENTRATION-SENSITIVE SEPARATION MATERIAL AND USE THEREOF 2012/03/06 2012/04/04 九州大学
4642 2011JP060887 WO 2011/142398 世界知的所有権機関(WIPO) FORCEPS SUPPORTING DEVICE 2012/03/06 2012/04/04 九州大学
4643 2011JP063249 WO 2012/002126 世界知的所有権機関(WIPO) ANGLE DETECTION DEVICE 2012/04/16 2012/04/26 九州大学
4644 2011JP064349 WO 2011/162320 世界知的所有権機関(WIPO) COMBINATION OF EGCG OR METHYLATED EGCG AND A PDE INHIBITOR 2012/04/16 2012/04/26 九州大学
4645 2011JP053028 WO 2011/099600 世界知的所有権機関(WIPO) PEAK FREQUENCY MEASUREMENT SYSTEM FOR SUBJECT-STATE ANALYZING SIGNAL 2012/05/07 2012/05/31 九州大学
4646 2010JP067011 WO 2011040500 世界知的所有権機関(WIPO) PEPTIDE INHIBITING DIFFERENTIATION OF HEMATOPOIETIC STEM CELLS OR HEMATOPOIETIC PRECURSOR CELLS AND USE OF SAME 2012/05/14 2019/04/22 九州大学
4647 2011JP050292 WO 2011/083869 世界知的所有権機関(WIPO) CUBIC BORON NITRIDE COATING METHOD AND MATERIAL PRODUCED BY THE METHOD 2012/05/16 2012/05/31 九州大学
4648 2012JP053788 WO 2012/111796 世界知的所有権機関(WIPO) TRANSMISSION PERIOD DETERMINATION METHOD, TRANSMISSION PERIOD DETERMINATION DEVICE, AND PROGRAM 2012/09/05 2012/09/25 九州大学
4649 2012JP058123 WO 2012/133527 世界知的所有権機関(WIPO) SODIUM ION SECONDARY BATTERY 2012/10/17 2012/10/17 九州大学
4650 2012JP059278 WO 2012/133920 世界知的所有権機関(WIPO) SOLID-STATE DYE LASER MEDIUM AND PROCESS FOR PRODUCTION THEREOF 2012/10/17 2012/10/17 九州大学
4651 2011JP070366 WO 2012/033124 世界知的所有権機関(WIPO) PACKET COMMUNICATION SYSTEM, IRRADIATION CONTROL APPARATUS, ANTENNA CONTROL METHOD AND PROGRAM 2012/10/29 2012/10/29 九州大学
4652 2012JP061753 WO 2012/153732 世界知的所有権機関(WIPO) SPREAD DEVICE, COMMUNICATION DEVICE, TRANSMISSION DEVICE, COMMUNICATION METHOD AND PROGRAMME 2012/11/28 2012/11/28 九州大学
4653 2012JP062777 WO 2012/157745 世界知的所有権機関(WIPO) SUPERCONDUCTING MAGNET AND NUCLEAR MAGNETIC RESONANCE DEVICE 2012/12/05 2012/12/05 九州大学
4654 2012JP063562 WO 2012/165356 世界知的所有権機関(WIPO) THERMOSENSITIVE POLYAMINO ACID OR SALT THEREOF 新技術説明会 2012/12/19 2012/12/19 九州大学
4655 2012JP066071 WO 2012/176907 世界知的所有権機関(WIPO) METHOD FOR PRODUCING IRON OXYFLUORIDE POSITIVE ELECTRODE ACTIVE SUBSTANCE AND IRON OXYFLUORIDE POSITIVE ELECTRODE ACTIVE SUBSTANCE 2013/01/09 2013/01/09 九州大学
4656 2012JP052487 WO 2012/105685 世界知的所有権機関(WIPO) HYDROGEL PRODUCED FROM CHITOSAN DERIVATIVE 新技術説明会 2013/02/06 2013/02/06 九州大学
4657 2012JP053341 WO 2012111647 世界知的所有権機関(WIPO) LAYERED COMPOUND-METAL PARTICLE COMPOSITE AND PRODUCTION METHOD THEREFOR, AND SUSPENSION, FILM AND FLEXIBLE SOLAR CELL USING SAME 2013/02/06 2019/04/22 九州大学
4658 2011JP070506 WO 2012/033167 世界知的所有権機関(WIPO) PROCESS FOR PRODUCING FILM CONTAINING ORIENTED NANOTUBES OR NANOPARTICLES, AND THE FILM 2013/03/05 2013/03/05 九州大学
4659 2012JP060390 WO 2012/157389 世界知的所有権機関(WIPO) LOW-MOLECULAR-WEIGHT COMPOUND CAPABLE OF REGULATING RAC ACTIVATION INDUCED BY DOCK-A SUBFAMILY MOLECULE, AND USE THEREOF 2013/05/14 2013/05/14 九州大学
4660 2012JP078199 WO 2013/065751 世界知的所有権機関(WIPO) SPIN OSCILLATION DEVICE AND MANUFACTURING METHOD FOR SAME 新技術説明会 2013/05/22 2013/05/22 九州大学
4661 2012JP058520 WO 2012/133736 世界知的所有権機関(WIPO) METHOD AND DEVICE FOR PRODUCING COMPOSITION HAVING DISPERSED PHASE FINELY DISPERSED IN CONTINUOUS PHASE 新技術説明会 2013/07/04 2013/07/04 九州大学
4662 2012JP077274 WO 2013058404 世界知的所有権機関(WIPO) DESIGN METHOD FOR RNA-BINDING PROTEIN USING PPR MOTIF, AND USE THEREOF 新技術説明会 2013/07/18 2019/04/22 九州大学
4663 2012JP067227 WO 2013/008723 世界知的所有権機関(WIPO) MATRIX FOR MALDI MASS SPECTROMETRY 2013/08/13 2013/08/13 九州大学
4664 2012JP070900 WO 2013/027668 世界知的所有権機関(WIPO) SYSTEM, DEVICE AND METHOD FOR GENERATING ION CONCENTRATION GRADIENT, AND TEMPERATURE-RESPONSIVE ELECTROLYTE MATERIAL 新技術説明会 2013/09/10 2013/09/10 九州大学
4665 2013JP057392 WO 2013/141155 世界知的所有権機関(WIPO) IMAGE COMPLETION SYSTEM FOR IN-IMAGE CUTOFF REGION, IMAGE PROCESSING DEVICE, AND PROGRAM THEREFOR 2013/12/06 2013/12/06 九州大学
4666 2013JP065217 WO 2013/180277 世界知的所有権機関(WIPO) OSCILLATOR 新技術説明会 2013/12/18 2013/12/25 九州大学
4667 2013JP065741 WO 2013/183725 世界知的所有権機関(WIPO) NON-HUMAN MODEL ANIMAL, METHOD FOR CREATING NON-HUMAN MODEL ANIMAL, AND METHOD FOR SCREENING ANTITHROMBOGENIC DRUG 2013/12/18 2013/12/25 九州大学
4668 2013JP069038 WO 2014010700 世界知的所有権機関(WIPO) AMINO COMPOUND, HIGH-SENSITIVITY MASS SPECTROMETRY METHOD FOR SAME, AND METHOD FOR ASSAYING FOR BIOMARKER 2015/01/23 2015/08/25 九州大学
4669 2013JP072848 WO 2014034654 世界知的所有権機関(WIPO) INTER-MODE LIGHT SWITCH 2015/01/23 2015/08/25 九州大学
4670 2013JP080577 WO 2014073702 世界知的所有権機関(WIPO) POSITIVE ELECTRODE ACTIVE MATERIAL AND SECONDARY BATTERY USING SAME 2015/03/19 2015/08/25 九州大学
4671 2014JP060356 WO 2014163213 世界知的所有権機関(WIPO) ANTI-TUMOR DNA VACCINE 2015/03/19 2015/08/25 九州大学
4672 2014JP056070 WO 2014136972 世界知的所有権機関(WIPO) SUPRAMOLECULAR COMPLEX, LIGHT-EMITTING BODY, AND SENSOR ELEMENT FOR DETECTING ORGANIC COMPOUND 2015/03/25 2015/08/25 九州大学
4673 2014JP056032 WO 2014136958 世界知的所有権機関(WIPO) HAND EXOSKELETON DEVICE 2015/03/25 2015/08/25 九州大学
4674 2014JP057833 WO 2014156986 世界知的所有権機関(WIPO) SILICON SINGLE CRYSTAL PRODUCTION APPARATUS, AND SILICON SINGLE CRYSTAL PRODUCTION METHOD 2015/03/26 2015/08/25 九州大学
4675 2014JP057776 WO 2014156958 世界知的所有権機関(WIPO) NANO-CAPSULE, COMPOSITION, POLYNUCLEOTIDE, RECOMBINANT VECTOR, AND TRANSFORMANT 新技術説明会 2015/03/26 2019/04/22 九州大学
4676 2013JP067885 WO 2014034249 世界知的所有権機関(WIPO) MODE CONVERSION ELEMENT 2015/06/29 2015/08/25 九州大学
4677 2013JP073686 WO 2014038551 世界知的所有権機関(WIPO) ANGLE DETECTION DEVICE 2015/06/29 2015/08/25 九州大学
4678 2014JP057652 WO 2015040877 世界知的所有権機関(WIPO) NUCLEAR MAGNETIC RESONANCE MOLECULAR SENSOR 2015/10/26 2015/10/29 九州大学
4679 2015JP051156 WO 2015105201 世界知的所有権機関(WIPO) METHOD OF PRODUCING MICROGLIAL CELLS 2015/11/20 2015/11/20 九州大学
4680 2013JP068446 WO 2014007354 世界知的所有権機関(WIPO) EBULLIENT COOLING DEVICE 2016/01/27 2016/01/27 九州大学
4681 2014JP064725 WO 2014196525 世界知的所有権機関(WIPO) MEASUREMENT APPARATUS AND MEASUREMENT METHOD 2016/01/27 2016/01/27 九州大学
4682 2014JP064341 WO 2014192894 世界知的所有権機関(WIPO) METHOD FOR DETECTING OXIDATION/REDUCTION REACTION IN VIVO 2016/01/27 2016/01/27 九州大学
4683 2016JP082468 WO 2017078022 世界知的所有権機関(WIPO) FINE WORK ASSISTANCE SYSTEM AND FINE WORK MANIPULATOR 2017/05/29 2017/05/29 九州大学
4684 2006JP310079 WO 2006/123800 世界知的所有権機関(WIPO) RNA INTERFERENCE INDUCTION ELEMENT AND USE THEREOF 2007/02/16 2007/02/15 久留米大学
4685 2005JP023903 WO 2006/070805 世界知的所有権機関(WIPO) AIRWAY ESTABLISHMENT APPRATUS AND STEPLESS CONTROLLER TO BE USED THEREIN 2008/06/13 2008/09/03 久留米大学
4686 2007JP071551 WO 2008/056662 世界知的所有権機関(WIPO) EYELIDS OPENING DEVICE WITH DRAPE 2009/01/23 2009/01/22 久留米大学
4687 2011JP064467 WO 2011/162360 世界知的所有権機関(WIPO) EYE-IRRIGATION IMPLEMENT AND EYE-IRRIGATION DEVICE 2012/09/19 2013/09/17 久留米大学
4688 2011JP067469 WO 2012/017950 世界知的所有権機関(WIPO) ELECTROENCEPHALOGRAPHIC ELECTRODE DEVICE FOR SMALL LABORATORY ANIMAL AND ELECTROENCEPHALOGRAPHIC METHOD 2012/10/29 2012/10/29 久留米大学
4689 2011JP068856 WO 2012/029577 世界知的所有権機関(WIPO) METHOD FOR PRODUCING CIRCULAR DNA FORMED FROM SINGLE-MOLECULE DNA 2013/01/11 2013/01/11 久留米大学
4690 2012JP050770 WO 2012/099087 世界知的所有権機関(WIPO) METHOD AND APPARATUS FOR AIDING COMPREHENSION OF TWO-DIMENSIONAL DIAGNOSTIC IMAGES IN DIAGNOSTIC IMAGING 2013/02/08 2013/02/08 久留米大学
4691 2011JP077062 WO 2012/070621 世界知的所有権機関(WIPO) USE OF AGE-SPECIFIC APTAMER FOR TREATING RENAL DISEASE 2013/03/05 2013/03/05 久留米大学
4692 2012JP072418 WO 2013/035681 世界知的所有権機関(WIPO) EMBEDDING RESIN COMPOSITION FOR ELECTRON MICROSCOPE, AND METHOD FOR OBSERVING SAMPLE ON ELECTRON MICROSCOPE USING SAID COMPOSITION 新技術説明会 2013/03/28 2013/03/28 久留米大学
4693 2012JP001996 WO 2012/127871 世界知的所有権機関(WIPO) COMBINATION MEDICINE FOR TREATMENT OF DEPRESSION 2013/04/26 2013/04/26 久留米大学
4694 2012JP071492 WO 2013/031700 世界知的所有権機関(WIPO) METHOD FOR EXCLUSIVE SELECTION OF CIRCULARIZED DNA FROM MONOMOLECULAR DNA WHEN CIRCULARIZING DNA MOLECULES 2013/07/16 2013/07/16 久留米大学
4695 2012JP065993 WO 2012176879 世界知的所有権機関(WIPO) REAGENT FOR CANCER TESTING, AND CANCER TESTING METHOD 2013/07/24 2019/04/19 久留米大学
4696 2013JP053295 WO 2013/122064 世界知的所有権機関(WIPO) GREEN SULFUR BACTERIA VARIANT AND BACTERIOCHLOROPHYLL 新技術説明会 2013/10/21 2013/10/21 久留米大学
4697 2013JP078441 WO 2014065232 世界知的所有権機関(WIPO) BLOOD VESSEL CLAMP DEVICE AND BLOOD VESSEL ANASTOMOSIS METHOD USING SAME 2014/11/19 2016/09/30 久留米大学
4698 2015JP061925 WO 2015163262 世界知的所有権機関(WIPO) INTERNAL FIXATION DEVICE FOR BONE FRACTURE TREATMENT 2016/01/28 2016/01/28 久留米大学
4699 2015JP062595 WO 2015163462 世界知的所有権機関(WIPO) GENETIC POLYMORPHISM USEFUL FOR PREDICTING TREATMENT EFFECTS OF CANCER IMMUNOTHERAPIES 2016/01/28 2019/04/19 久留米大学
4700 2015JP063320 WO 2015170746 世界知的所有権機関(WIPO) BONE FRACTURE TREATMENT INSTRUMENT 2016/02/05 2016/02/05 久留米大学

(47/48 page)

PAGE TOP